Time;durP1;ratioP1;P1;durP2;ratioP2;P2;SDS_P1;SDS_P2;PMS_P1;PMS_P2;Temp;Humidity;BMP_temperature;BMP_pressure;BME280_temperature;BME280_humidity;BME280_pressure;Samples;Min_cycle;Max_cycle;Signal;HPM_P1;HPM_P2
2023/12/06 00:01:13;;;;;;;21.10;12.18;;;;;;;0.97;59.20;101011.57;1705460;84;21328;-87
2023/12/06 00:04:20;;;;;;;20.45;12.58;;;;;;;0.94;59.52;101021.22;1727898;82;21316;-89
2023/12/06 00:07:27;;;;;;;22.42;11.55;;;;;;;0.94;59.53;101018.98;1728698;82;21335;-89
2023/12/06 00:10:34;;;;;;;20.77;12.45;;;;;;;1.20;58.70;101019.53;1699464;83;21865;-87
2023/12/06 00:13:43;;;;;;;21.67;11.60;;;;;;;0.89;59.47;101018.41;1709491;83;21369;-90
2023/12/06 00:16:48;;;;;;;18.73;12.23;;;;;;;0.83;59.44;101014.77;1730654;83;21317;-87
2023/12/06 00:19:55;;;;;;;42.27;19.50;;;;;;;1.00;59.02;101008.70;1728700;83;21903;-91
2023/12/06 00:23:03;;;;;;;125.07;44.85;;;;;;;0.98;59.11;101009.25;1728683;82;21360;-89
2023/12/06 00:26:10;;;;;;;32.25;15.80;;;;;;;1.13;58.57;101002.50;1703279;83;21841;-91
2023/12/06 00:29:17;;;;;;;35.65;25.15;;;;;;;0.91;59.06;101011.11;1732012;82;21300;-88
2023/12/06 00:32:24;;;;;;;20.90;13.98;;;;;;;0.92;58.96;100987.25;1699211;84;21367;-88
2023/12/06 00:35:31;;;;;;;18.20;12.55;;;;;;;0.98;58.66;100986.84;1700060;83;21331;-88
2023/12/06 00:38:37;;;;;;;16.27;10.15;;;;;;;0.98;59.02;100984.15;1736270;82;21884;-88
2023/12/06 00:41:44;;;;;;;23.65;15.72;;;;;;;0.97;59.07;100988.67;1783823;79;21284;-89
2023/12/06 00:44:51;;;;;;;19.52;13.53;;;;;;;1.04;59.15;100999.08;1746317;79;21321;-90
2023/12/06 00:47:57;;;;;;;26.33;15.58;;;;;;;1.03;58.56;100998.19;1735526;82;21342;-89
2023/12/06 00:51:03;;;;;;;20.23;12.98;;;;;;;1.12;58.45;100993.55;1776956;79;21314;-88
2023/12/06 00:54:09;;;;;;;19.25;11.70;;;;;;;1.25;58.20;100987.75;1770607;80;21836;-88
2023/12/06 00:57:15;;;;;;;21.40;11.93;;;;;;;0.94;59.00;100976.77;1753647;81;21311;-88
2023/12/06 01:00:23;;;;;;;17.27;10.82;;;;;;;1.10;58.63;100980.67;1745048;82;21160;-90
2023/12/06 01:03:29;;;;;;;168.75;68.17;;;;;;;0.45;60.20;100977.16;1748273;81;21343;-90
2023/12/06 01:06:35;;;;;;;33.30;16.75;;;;;;;0.42;60.64;100972.44;1777171;80;21295;-91
2023/12/06 01:09:42;;;;;;;29.42;24.55;;;;;;;0.76;59.80;100963.13;1772395;80;21267;-88
2023/12/06 01:12:48;;;;;;;18.73;13.75;;;;;;;0.59;60.20;100961.49;1771022;81;21331;-88
2023/12/06 01:15:55;;;;;;;26.30;16.52;;;;;;;0.73;59.86;100947.16;1769534;81;21268;-88
2023/12/06 01:19:02;;;;;;;20.20;13.98;;;;;;;0.90;59.47;100932.63;1771169;81;21276;-88
2023/12/06 01:22:13;;;;;;;24.90;15.25;;;;;;;1.08;58.81;100931.39;1764764;81;21260;-91
2023/12/06 01:25:19;;;;;;;22.05;14.30;;;;;;;0.94;59.12;100917.96;1767715;81;21257;-91
2023/12/06 01:28:25;;;;;;;23.62;11.97;;;;;;;0.91;58.97;100922.22;1770533;81;21327;-88
2023/12/06 01:31:33;;;;;;;21.45;11.28;;;;;;;0.96;58.93;100912.88;1769799;81;21311;-88
2023/12/06 01:34:40;;;;;;;19.92;12.70;;;;;;;1.09;58.56;100910.73;1769845;81;21316;-90
2023/12/06 01:37:47;;;;;;;62.85;46.35;;;;;;;1.15;58.34;100899.05;1769658;80;21860;-90
2023/12/06 01:40:53;;;;;;;21.60;15.28;;;;;;;1.21;58.38;100897.28;1766470;81;21295;-91
2023/12/06 01:43:59;;;;;;;16.70;10.50;;;;;;;1.00;59.02;100891.50;1760410;81;21917;-90
2023/12/06 01:47:05;;;;;;;83.62;68.75;;;;;;;0.69;59.88;100874.27;1756514;81;21903;-88
2023/12/06 01:50:12;;;;;;;20.57;11.70;;;;;;;0.84;59.61;100871.05;1773131;81;21285;-91
2023/12/06 01:53:19;;;;;;;21.73;10.88;;;;;;;0.64;59.91;100879.09;1771803;81;21304;-90
2023/12/06 01:56:28;;;;;;;17.02;11.70;;;;;;;0.81;59.79;100851.08;1766475;81;21315;-91
2023/12/06 01:59:34;;;;;;;26.87;18.75;;;;;;;0.73;59.79;100851.08;1759539;81;21295;-90
2023/12/06 02:02:41;;;;;;;27.35;16.97;;;;;;;0.87;59.25;100844.79;1759318;81;21899;-89
2023/12/06 02:05:46;;;;;;;19.00;11.40;;;;;;;0.79;59.34;100840.87;1767001;80;21271;-91
2023/12/06 02:08:53;;;;;;;16.82;11.50;;;;;;;0.84;59.31;100855.75;1765326;80;21338;-89
2023/12/06 02:11:59;;;;;;;24.50;14.43;;;;;;;0.88;59.08;100842.95;1765700;81;21315;-91
2023/12/06 02:15:05;;;;;;;27.65;20.65;;;;;;;0.75;59.27;100849.17;1766494;81;21352;-90
2023/12/06 02:18:13;;;;;;;32.55;23.22;;;;;;;0.92;58.89;100852.56;1764020;81;21383;-88
2023/12/06 02:21:19;;;;;;;26.55;16.07;;;;;;;1.00;58.17;100840.80;1749434;81;21825;-88
2023/12/06 02:24:25;;;;;;;23.98;15.00;;;;;;;0.80;58.82;100858.75;1743185;80;21326;-90
2023/12/06 02:27:31;;;;;;;64.92;45.92;;;;;;;0.93;58.54;100843.52;1743711;81;22052;-88
2023/12/06 02:30:38;;;;;;;34.43;26.23;;;;;;;0.79;58.80;100859.72;1766784;81;21275;-88
2023/12/06 02:33:45;;;;;;;88.58;72.55;;;;;;;0.69;58.75;100854.07;1765249;81;21860;-88
2023/12/06 02:36:55;;;;;;;69.10;51.88;;;;;;;0.61;59.09;100854.59;1766476;81;21395;-90
2023/12/06 02:40:04;;;;;;;38.58;26.37;;;;;;;0.73;58.80;100852.42;1751806;81;21303;-88
2023/12/06 02:43:10;;;;;;;35.07;26.50;;;;;;;0.73;58.98;100847.52;1755112;80;21342;-88
2023/12/06 02:46:18;;;;;;;95.87;74.32;;;;;;;0.98;58.33;100833.29;1735148;82;21484;-87
2023/12/06 02:49:24;;;;;;;32.50;21.15;;;;;;;0.71;58.41;100841.39;1753118;81;21331;-91
2023/12/06 02:52:34;;;;;;;83.87;64.40;;;;;;;0.96;57.91;100850.91;1763669;81;21297;-91
2023/12/06 02:55:40;;;;;;;50.52;32.42;;;;;;;0.72;58.26;100838.58;1758138;80;21823;-91
2023/12/06 02:58:47;;;;;;;44.25;32.83;;;;;;;0.60;58.79;100842.06;1769238;79;21373;-91
2023/12/06 03:01:56;;;;;;;96.90;73.40;;;;;;;0.73;58.07;100830.02;1744120;81;21327;-90
2023/12/06 03:05:04;;;;;;;37.13;27.32;;;;;;;0.85;57.78;100823.84;1765573;81;21307;-89
2023/12/06 03:08:14;;;;;;;81.08;62.90;;;;;;;1.06;57.57;100824.70;1765392;81;21271;-88
2023/12/06 03:11:20;;;;;;;91.90;69.58;;;;;;;0.77;57.71;100826.17;1769408;79;21275;-88
2023/12/06 03:14:26;;;;;;;52.78;34.30;;;;;;;0.46;58.78;100815.18;1770018;81;21308;-91
2023/12/06 03:17:33;;;;;;;62.10;47.62;;;;;;;0.54;58.66;100813.34;1769735;81;21315;-88
2023/12/06 03:20:40;;;;;;;57.17;43.87;;;;;;;0.58;58.89;100813.05;1770510;81;21280;-88
2023/12/06 03:23:48;;;;;;;59.90;41.23;;;;;;;0.31;59.26;100786.58;1765540;79;21355;-88
2023/12/06 03:26:53;;;;;;;44.15;34.25;;;;;;;0.52;58.67;100801.34;1765960;81;21307;-88
2023/12/06 03:30:00;;;;;;;41.83;32.80;;;;;;;0.52;58.31;100801.34;1765172;81;21777;-88
2023/12/06 03:33:00;;;;;;;15.95;10.75;;;;;;;0.56;58.55;100785.34;1775028;79;21327;-90
2023/12/06 03:35:53;;;;;;;23.47;15.38;;;;;;;0.51;58.79;100788.83;1775328;80;21259;-92
2023/12/06 03:38:59;;;;;;;36.25;23.75;;;;;;;0.68;58.38;100788.59;1766141;81;21887;-88
2023/12/06 03:42:07;;;;;;;59.77;39.30;;;;;;;0.62;58.65;100780.92;1731520;81;21824;-88
2023/12/06 03:45:15;;;;;;;32.08;22.80;;;;;;;0.54;58.75;100785.94;1753397;81;21312;-92
2023/12/06 03:48:22;;;;;;;89.30;68.12;;;;;;;0.63;58.39;100792.55;1769833;80;21315;-88
2023/12/06 03:51:29;;;;;;;46.42;32.90;;;;;;;0.72;57.96;100786.56;1761164;81;21284;-91
2023/12/06 03:54:36;;;;;;;44.13;35.20;;;;;;;0.70;58.18;100775.02;1758692;81;21883;-87
2023/12/06 03:57:42;;;;;;;66.12;52.55;;;;;;;0.66;58.17;100778.42;1734140;82;21319;-91
2023/12/06 04:00:48;;;;;;;44.30;19.87;;;;;;;0.71;57.86;100782.15;1743905;80;21303;-87
2023/12/06 04:03:54;;;;;;;52.30;34.15;;;;;;;0.75;57.62;100793.07;1756636;81;21911;-88
2023/12/06 04:07:00;;;;;;;65.83;44.85;;;;;;;1.00;57.05;100799.91;1766022;81;21283;-91
2023/12/06 04:10:07;;;;;;;26.87;18.05;;;;;;;1.04;56.81;100814.53;1763319;80;21299;-88
2023/12/06 04:13:14;;;;;;;61.18;45.05;;;;;;;0.76;57.39;100824.45;1756843;81;21331;-88
2023/12/06 04:16:20;;;;;;;77.78;58.60;;;;;;;0.70;57.53;100834.25;1756714;81;21836;-88
2023/12/06 04:19:27;;;;;;;87.05;68.07;;;;;;;0.53;58.07;100843.44;1767613;81;21269;-88
2023/12/06 04:22:34;;;;;;;76.53;55.55;;;;;;;0.49;58.44;100854.02;1760926;81;21342;-90
2023/12/06 04:25:40;;;;;;;103.75;73.50;;;;;;;0.75;57.69;100853.66;1753885;81;21299;-90
2023/12/06 04:28:46;;;;;;;53.35;38.00;;;;;;;0.66;57.95;100861.88;1761781;81;21913;-88
2023/12/06 04:31:53;;;;;;;27.35;18.37;;;;;;;0.67;58.05;100858.22;1751338;81;21299;-88
2023/12/06 04:35:03;;;;;;;23.18;14.33;;;;;;;0.82;57.60;100865.77;1758141;81;21331;-87
2023/12/06 04:38:09;;;;;;;21.10;14.03;;;;;;;0.89;57.30;100870.27;1749328;81;21935;-91
2023/12/06 04:41:16;;;;;;;60.05;41.30;;;;;;;0.91;57.28;100884.52;1743037;81;21307;-87
2023/12/06 04:44:23;;;;;;;33.10;20.12;;;;;;;0.81;57.46;100888.78;1732862;83;21308;-91
2023/12/06 04:47:31;;;;;;;30.82;19.52;;;;;;;0.74;57.41;100883.77;1730216;82;21331;-91
2023/12/06 04:50:37;;;;;;;39.75;27.65;;;;;;;0.49;57.80;100889.02;1727238;83;21300;-89
2023/12/06 04:53:45;;;;;;;25.57;15.72;;;;;;;0.53;58.29;100889.20;1729979;83;21295;-88
2023/12/06 04:56:52;;;;;;;29.25;20.30;;;;;;;0.64;58.00;100875.91;1730661;82;21314;-88
2023/12/06 04:59:58;;;;;;;29.90;17.95;;;;;;;0.55;58.66;100885.92;1727341;82;21849;-87
2023/12/06 05:03:05;;;;;;;25.15;18.32;;;;;;;0.33;59.00;100882.86;1723714;83;21291;-91
2023/12/06 05:06:11;;;;;;;32.25;25.70;;;;;;;0.47;58.82;100879.70;1722472;83;21315;-91
2023/12/06 05:09:17;;;;;;;24.27;16.60;;;;;;;0.44;59.00;100889.80;1722880;83;21308;-91
2023/12/06 05:12:24;;;;;;;32.65;17.98;;;;;;;0.46;59.20;100893.23;1725120;83;21379;-91
2023/12/06 05:15:30;;;;;;;27.93;17.42;;;;;;;0.34;59.33;100894.03;1726497;83;21272;-91
2023/12/06 05:18:38;;;;;;;23.73;15.83;;;;;;;0.35;59.35;100893.06;1735074;82;21192;-88
2023/12/06 05:21:44;;;;;;;25.37;16.60;;;;;;;0.33;59.43;100884.20;1735197;82;21844;-91
2023/12/06 05:24:52;;;;;;;37.10;23.15;;;;;;;0.48;58.91;100879.22;1723725;83;21273;-91
2023/12/06 05:27:59;;;;;;;28.38;17.00;;;;;;;0.30;59.25;100885.77;1723830;83;21289;-88
2023/12/06 05:31:06;;;;;;;41.00;32.48;;;;;;;0.59;58.62;100886.59;1725179;83;21301;-91
2023/12/06 05:34:12;;;;;;;25.88;16.65;;;;;;;0.39;58.38;100891.91;1725037;83;21272;-90
2023/12/06 05:37:19;;;;;;;29.12;18.75;;;;;;;0.74;57.92;100885.59;1724310;83;21347;-90
2023/12/06 05:40:25;;;;;;;41.58;29.25;;;;;;;0.36;58.61;100894.78;1724814;83;21320;-88
2023/12/06 05:43:32;;;;;;;33.83;19.95;;;;;;;0.16;59.42;100896.05;1723030;82;21324;-91
2023/12/06 05:46:39;;;;;;;30.95;19.37;;;;;;;0.24;59.33;100908.06;1772782;79;21812;-92
2023/12/06 05:49:45;;;;;;;48.58;38.38;;;;;;;0.16;59.50;100906.32;1777664;80;21256;-87
2023/12/06 05:52:52;;;;;;;22.87;13.70;;;;;;;0.36;58.91;100902.86;1772309;81;21321;-88
2023/12/06 05:55:58;;;;;;;173.75;93.40;;;;;;;0.51;58.08;100904.57;1764898;79;22112;-91
2023/12/06 05:59:06;;;;;;;291.77;226.88;;;;;;;0.68;57.50;100900.81;1756378;80;21259;-91
2023/12/06 06:02:13;;;;;;;71.62;49.98;;;;;;;0.75;57.18;100896.30;1771419;80;21313;-91
2023/12/06 06:05:19;;;;;;;37.60;26.93;;;;;;;0.75;57.09;100904.38;1771530;79;21269;-88
2023/12/06 06:08:26;;;;;;;24.60;15.90;;;;;;;0.74;57.23;100897.23;1769349;80;21299;-91
2023/12/06 06:11:34;;;;;;;17.62;10.05;;;;;;;0.84;57.62;100895.28;1770455;80;21290;-91
2023/12/06 06:14:41;;;;;;;27.55;21.50;;;;;;;1.02;57.47;100900.34;1751814;80;21840;-91
2023/12/06 06:17:48;;;;;;;42.08;34.15;;;;;;;1.06;57.36;100897.45;1759822;81;21275;-88
2023/12/06 06:20:55;;;;;;;53.40;40.35;;;;;;;1.09;57.29;100891.38;1763493;79;21876;-88
2023/12/06 06:24:03;;;;;;;73.87;56.63;;;;;;;0.81;57.56;100901.76;1772071;79;21306;-88
2023/12/06 06:27:10;;;;;;;61.77;43.68;;;;;;;0.94;57.23;100884.29;1770566;80;21872;-92
2023/12/06 06:30:18;;;;;;;27.25;18.48;;;;;;;0.81;57.73;100875.31;1754272;79;21291;-91
2023/12/06 06:33:24;;;;;;;68.70;48.78;;;;;;;1.02;56.87;100876.58;1752605;79;21302;-91
2023/12/06 06:36:31;;;;;;;39.05;27.58;;;;;;;1.11;56.82;100873.27;1751996;81;21260;-88
2023/12/06 06:39:38;;;;;;;25.85;17.77;;;;;;;0.94;56.92;100875.75;1769335;81;21284;-91
2023/12/06 06:42:45;;;;;;;19.70;11.00;;;;;;;1.08;56.98;100877.51;1771747;79;21280;-88
2023/12/06 06:45:52;;;;;;;26.37;14.85;;;;;;;1.32;56.66;100879.53;1756794;79;21310;-91
2023/12/06 06:48:58;;;;;;;19.23;11.68;;;;;;;0.82;57.65;100881.07;1753362;79;21279;-91
2023/12/06 06:52:05;;;;;;;51.20;37.23;;;;;;;0.77;57.40;100878.67;1760058;79;21279;-92
2023/12/06 06:55:12;;;;;;;20.75;10.60;;;;;;;0.99;57.04;100869.58;1737425;80;21283;-91
2023/12/06 06:58:21;;;;;;;20.60;12.03;;;;;;;1.01;56.54;100861.39;1750934;80;21354;-87
2023/12/06 07:01:29;;;;;;;31.73;21.48;;;;;;;1.06;56.17;100846.27;1752114;79;21264;-87
2023/12/06 07:04:37;;;;;;;24.20;10.90;;;;;;;0.99;56.51;100843.13;1755053;79;21832;-88
2023/12/06 07:07:44;;;;;;;24.75;18.17;;;;;;;1.12;56.27;100857.48;1755459;79;21886;-88
2023/12/06 07:10:53;;;;;;;17.00;9.40;;;;;;;0.99;56.26;100849.38;1759621;80;21326;-91
2023/12/06 07:14:03;;;;;;;21.55;13.95;;;;;;;1.03;56.11;100855.40;1739501;79;21275;-91
2023/12/06 07:17:09;;;;;;;34.90;22.37;;;;;;;1.01;56.25;100851.95;1756692;79;21828;-91
2023/12/06 07:20:19;;;;;;;19.67;10.82;;;;;;;0.77;56.60;100849.05;1776951;79;21295;-91
2023/12/06 07:23:27;;;;;;;25.72;15.03;;;;;;;0.84;56.86;100844.12;1770566;79;21287;-92
2023/12/06 07:26:39;;;;;;;23.47;9.03;;;;;;;0.97;56.52;100861.20;1758130;79;21281;-92
2023/12/06 07:29:49;;;;;;;18.50;8.60;;;;;;;0.99;56.02;100855.25;1744631;80;21756;-88
2023/12/06 07:32:57;;;;;;;15.65;8.93;;;;;;;1.05;55.75;100848.09;1769502;79;21311;-87
2023/12/06 07:36:05;;;;;;;19.25;10.75;;;;;;;1.03;55.50;100850.01;1723702;79;21914;-87
2023/12/06 07:39:14;;;;;;;33.18;21.62;;;;;;;1.09;55.83;100848.77;1724923;80;21295;-88
2023/12/06 07:42:23;;;;;;;;;;;;;;;1.23;55.29;100847.35;1727820;81;21346;-87
2023/12/06 07:45:30;;;;;;;17.12;9.43;;;;;;;1.16;55.52;100844.19;1741665;79;20329;-88
2023/12/06 07:48:38;;;;;;;15.10;9.18;;;;;;;1.37;54.95;100839.68;1770469;79;21345;-87
2023/12/06 07:51:45;;;;;;;38.98;28.92;;;;;;;1.28;54.82;100837.98;1782160;79;21298;-86
2023/12/06 07:54:52;;;;;;;16.50;10.72;;;;;;;1.57;54.47;100846.39;1778645;79;21299;-89
2023/12/06 07:58:01;;;;;;;22.82;12.35;;;;;;;1.29;55.07;100845.58;1778279;79;21302;-87
2023/12/06 08:01:10;;;;;;;19.10;13.13;;;;;;;1.62;54.00;100828.92;1769137;79;21274;-88
2023/12/06 08:04:19;;;;;;;27.97;13.07;;;;;;;1.77;53.90;100844.03;1771904;79;21571;-88
2023/12/06 08:07:26;;;;;;;17.60;10.70;;;;;;;1.51;54.41;100838.25;1776612;79;21270;-88
2023/12/06 08:10:33;;;;;;;14.03;8.60;;;;;;;1.52;54.55;100844.02;1769195;79;21286;-87
2023/12/06 08:13:41;;;;;;;35.50;27.37;;;;;;;1.48;54.22;100845.19;1772707;79;21824;-87
2023/12/06 08:16:48;;;;;;;38.10;26.65;;;;;;;1.64;53.13;100840.45;1773839;79;21342;-88
2023/12/06 08:19:55;;;;;;;22.45;10.08;;;;;;;1.46;53.26;100831.83;1774093;79;21919;-87
2023/12/06 08:23:03;;;;;;;46.20;33.13;;;;;;;1.69;53.63;100831.55;1772804;79;21283;-87
2023/12/06 08:26:10;;;;;;;26.48;17.30;;;;;;;1.51;53.62;100826.12;1765168;79;21281;-87
2023/12/06 08:29:18;;;;;;;38.25;27.77;;;;;;;1.57;53.31;100837.81;1768683;79;21192;-88
2023/12/06 08:32:25;;;;;;;39.42;30.72;;;;;;;1.79;52.06;100823.22;1786538;79;21857;-89
2023/12/06 08:35:34;;;;;;;28.62;16.50;;;;;;;1.56;52.16;100824.45;1726747;82;21850;-88
2023/12/06 08:38:44;;;;;;;100.65;83.75;;;;;;;1.74;51.96;100821.80;1733701;82;21290;-88
2023/12/06 08:41:50;;;;;;;42.17;29.80;;;;;;;1.80;51.44;100820.04;1756333;79;21661;-88
2023/12/06 08:44:59;;;;;;;67.97;56.98;;;;;;;1.58;51.37;100827.41;1772204;79;21279;-88
2023/12/06 08:48:06;;;;;;;70.00;57.10;;;;;;;1.66;51.01;100823.70;1720352;81;21292;-88
2023/12/06 08:51:13;;;;;;;45.12;36.85;;;;;;;1.92;50.76;100831.30;1722926;82;21284;-88
2023/12/06 08:54:20;;;;;;;58.45;47.08;;;;;;;2.02;50.33;100820.25;1711751;81;21635;-89
2023/12/06 08:57:27;;;;;;;64.47;49.90;;;;;;;1.96;50.41;100823.36;1706813;81;21330;-88
2023/12/06 09:00:34;;;;;;;33.95;26.05;;;;;;;2.12;50.51;100831.71;1702237;81;21659;-88
2023/12/06 09:03:41;;;;;;;69.53;53.05;;;;;;;2.23;50.52;100824.59;1722807;81;21271;-92
2023/12/06 09:06:48;;;;;;;175.45;144.43;;;;;;;2.12;49.92;100825.86;1734530;80;21864;-88
2023/12/06 09:09:55;;;;;;;31.55;27.25;;;;;;;2.14;50.38;100823.89;1721604;81;21836;-87
2023/12/06 09:13:02;;;;;;;77.12;61.33;;;;;;;2.20;50.08;100824.80;1722389;81;21951;-88
2023/12/06 09:16:11;;;;;;;56.92;47.90;;;;;;;2.19;49.68;100817.67;1725994;81;21676;-89
2023/12/06 09:19:19;;;;;;;44.25;38.42;;;;;;;2.22;49.99;100812.56;1722123;81;21261;-87
2023/12/06 09:22:27;;;;;;;85.30;67.32;;;;;;;2.19;50.43;100804.19;1718619;81;21316;-88
2023/12/06 09:25:35;;;;;;;20.62;14.58;;;;;;;2.22;50.28;100807.16;1692975;81;21312;-87
2023/12/06 09:28:44;;;;;;;92.02;77.75;;;;;;;2.30;50.47;100801.55;1723886;81;21313;-88
2023/12/06 09:31:50;;;;;;;91.95;69.87;;;;;;;2.36;50.13;100803.47;1710785;81;21397;-88
2023/12/06 09:34:57;;;;;;;53.87;40.85;;;;;;;2.50;50.13;100795.22;1718850;81;21282;-87
2023/12/06 09:38:04;;;;;;;50.08;39.13;;;;;;;2.37;50.59;100803.83;1713615;82;21719;-88
2023/12/06 09:41:13;;;;;;;37.93;31.17;;;;;;;2.27;51.36;100799.09;1702167;82;21862;-88
2023/12/06 09:44:22;;;;;;;39.53;31.75;;;;;;;2.57;50.89;100789.72;1708431;82;21832;-88
2023/12/06 09:47:29;;;;;;;13.38;10.60;;;;;;;2.70;50.73;100782.44;1703354;81;21564;-88
2023/12/06 09:50:36;;;;;;;40.80;28.05;;;;;;;2.86;50.41;100774.53;1725738;81;21311;-88
2023/12/06 09:53:42;;;;;;;61.98;47.48;;;;;;;2.80;50.46;100770.45;1729933;81;21279;-88
2023/12/06 09:56:49;;;;;;;40.17;34.30;;;;;;;2.78;50.54;100765.17;1726285;81;21629;-87
2023/12/06 09:59:56;;;;;;;45.55;39.75;;;;;;;2.81;49.77;100760.87;1729233;81;21276;-87
2023/12/06 10:03:05;;;;;;;54.77;48.50;;;;;;;2.70;50.05;100765.38;1732501;81;21299;-88
2023/12/06 10:06:12;;;;;;;31.85;25.25;;;;;;;3.11;49.57;100760.89;1733353;81;21300;-88
2023/12/06 10:09:20;;;;;;;40.58;33.67;;;;;;;2.99;49.98;100758.62;1727064;81;21907;-88
2023/12/06 10:12:28;;;;;;;45.75;27.80;;;;;;;3.28;49.49;100759.08;1726069;81;21339;-88
2023/12/06 10:15:44;;;;;;;21.95;16.15;;;;;;;3.21;49.59;100755.14;1729060;81;21345;-90
2023/12/06 10:18:55;;;;;;;23.70;14.45;;;;;;;3.13;50.02;100741.34;1735306;81;21271;-90
2023/12/06 10:22:01;;;;;;;16.23;9.93;;;;;;;2.96;50.77;100733.17;1727575;81;21297;-91
2023/12/06 10:25:08;;;;;;;13.88;8.28;;;;;;;3.04;50.19;100733.45;1719017;81;21334;-92
2023/12/06 10:28:17;;;;;;;28.10;13.20;;;;;;;3.03;50.14;100738.49;1711798;81;21747;-91
2023/12/06 10:31:26;;;;;;;24.82;13.53;;;;;;;3.16;50.17;100733.51;1707495;81;21278;-91
2023/12/06 10:34:37;;;;;;;31.55;24.35;;;;;;;3.23;50.00;100723.92;1713819;81;21264;-88
2023/12/06 10:37:46;;;;;;;19.00;12.95;;;;;;;3.29;50.05;100718.92;1730665;81;21383;-87
2023/12/06 10:40:53;;;;;;;21.20;12.68;;;;;;;3.18;50.32;100716.17;1730023;81;21335;-89
2023/12/06 10:44:04;;;;;;;43.58;29.95;;;;;;;3.27;50.00;100721.36;1733765;81;22164;-91
2023/12/06 10:47:09;;;;;;;;;;;;;;;3.35;50.53;100716.72;1738550;81;21426;-92
2023/12/06 10:50:16;;;;;;;15.63;8.13;;;;;;;3.19;50.26;100710.27;1773800;79;20280;-90
2023/12/06 10:53:24;;;;;;;31.93;10.28;;;;;;;3.23;50.03;100707.21;1769509;79;21290;-91
2023/12/06 10:56:30;;;;;;;14.15;7.72;;;;;;;2.90;50.90;100709.82;1768446;79;21316;-92
2023/12/06 10:59:37;;;;;;;15.58;8.18;;;;;;;3.02;50.92;100713.80;1770932;79;21298;-88
2023/12/06 11:02:44;;;;;;;14.68;7.80;;;;;;;3.13;50.87;100711.61;1749429;80;21806;-88
2023/12/06 11:05:48;;;;;;;22.50;14.95;;;;;;;3.01;51.16;100705.33;1757226;79;21272;-88
2023/12/06 11:09:08;;;;;;;21.80;16.65;;;;;;;3.00;51.18;100697.32;1741340;81;21315;-88
2023/12/06 11:12:24;;;;;;;36.73;22.77;;;;;;;3.07;51.72;100696.73;1759260;79;21290;-88
2023/12/06 11:15:28;;;;;;;13.65;6.65;;;;;;;3.13;51.43;100694.53;1727270;82;21816;-88
2023/12/06 11:18:52;;;;;;;18.98;7.03;;;;;;;3.11;51.46;100681.16;1728935;82;21851;-88
2023/12/06 11:21:57;;;;;;;16.42;7.03;;;;;;;3.02;51.69;100684.08;1755619;79;22329;-88
2023/12/06 11:25:05;;;;;;;17.32;8.35;;;;;;;3.27;51.13;100676.25;1782727;79;21288;-89
2023/12/06 11:28:20;;;;;;;18.90;9.35;;;;;;;3.46;51.01;100663.98;1748643;79;21296;-89
2023/12/06 11:31:26;;;;;;;17.87;7.75;;;;;;;3.43;51.12;100668.27;1753924;79;21309;-89
2023/12/06 11:34:27;;;;;;;15.80;7.15;;;;;;;3.15;51.75;100660.98;1692222;82;21892;-91
2023/12/06 11:37:33;;;;;;;12.78;7.70;;;;;;;3.06;51.96;100667.14;1688731;82;21690;-92
2023/12/06 11:40:39;;;;;;;18.90;7.65;;;;;;;3.05;52.09;100670.80;1744519;80;21745;-91
2023/12/06 11:43:47;;;;;;;31.60;9.05;;;;;;;3.18;52.05;100668.86;1760636;80;21264;-92
2023/12/06 11:46:51;;;;;;;17.80;7.10;;;;;;;3.02;52.12;100661.11;1771365;79;21339;-89
2023/12/06 11:49:52;;;;;;;22.20;11.25;;;;;;;3.37;51.64;100656.60;1755617;79;21715;-87
2023/12/06 11:53:01;;;;;;;17.12;8.53;;;;;;;3.37;51.55;100656.60;1731459;79;21387;-87
2023/12/06 11:56:08;;;;;;;15.10;8.73;;;;;;;3.45;51.48;100662.27;1737196;80;21839;-87
2023/12/06 11:59:15;;;;;;;14.28;7.62;;;;;;;3.40;51.33;100661.28;1713318;82;21282;-91
2023/12/06 12:02:15;;;;;;;18.12;7.58;;;;;;;3.25;51.42;100666.06;1733900;80;21886;-91
2023/12/06 12:05:08;;;;;;;13.95;8.05;;;;;;;3.12;51.26;100663.09;1720380;82;21279;-88
2023/12/06 12:08:19;;;;;;;14.68;8.38;;;;;;;3.19;51.28;100651.66;1735212;80;21317;-87
2023/12/06 12:11:27;;;;;;;24.63;8.58;;;;;;;3.20;51.21;100667.37;1738476;80;21258;-90
2023/12/06 12:14:42;;;;;;;17.17;7.58;;;;;;;3.33;51.28;100662.73;1719066;81;21251;-91
2023/12/06 12:17:48;;;;;;;15.63;7.42;;;;;;;3.22;51.13;100670.84;1731659;80;21333;-88
2023/12/06 12:20:55;;;;;;;19.25;6.65;;;;;;;3.32;51.00;100679.45;1710039;84;21291;-88
2023/12/06 12:24:02;;;;;;;14.80;8.40;;;;;;;3.26;51.17;100669.12;1703075;84;21288;-90
2023/12/06 12:27:18;;;;;;;15.25;8.25;;;;;;;3.36;51.25;100670.62;1723612;82;21313;-88
2023/12/06 12:30:23;;;;;;;18.50;8.85;;;;;;;3.46;50.87;100669.39;1741400;82;21263;-91
2023/12/06 12:33:29;;;;;;;23.47;8.18;;;;;;;3.38;50.77;100661.02;1742175;80;21381;-91
2023/12/06 12:36:35;;;;;;;12.95;7.53;;;;;;;3.28;50.95;100667.16;1727222;82;21300;-88
2023/12/06 12:39:41;;;;;;;27.07;11.38;;;;;;;3.18;51.13;100659.41;1735485;80;21260;-91
2023/12/06 12:42:48;;;;;;;36.63;14.43;;;;;;;3.29;50.83;100661.25;1718880;80;21903;-91
2023/12/06 12:45:55;;;;;;;16.48;7.97;;;;;;;3.16;51.32;100669.48;1737596;80;21296;-91
2023/12/06 12:49:02;;;;;;;31.07;10.82;;;;;;;3.32;50.77;100672.70;1734577;82;21294;-89
2023/12/06 12:52:10;;;;;;;36.03;11.08;;;;;;;3.42;50.89;100672.83;1770000;79;21247;-88
2023/12/06 12:55:20;;;;;;;14.53;8.05;;;;;;;3.32;50.85;100663.72;1774580;79;21307;-88
2023/12/06 12:58:26;;;;;;;;;;;;;;;3.33;50.64;100662.73;1775068;79;21335;-87
2023/12/06 13:01:32;;;;;;;18.10;7.65;;;;;;;3.48;50.08;100665.59;1768591;79;20269;-87
2023/12/06 13:04:38;;;;;;;15.63;8.48;;;;;;;3.40;50.33;100665.83;1765334;79;21339;-89
2023/12/06 13:07:48;;;;;;;15.13;7.62;;;;;;;3.56;50.08;100666.32;1768787;79;21298;-90
2023/12/06 13:10:54;;;;;;;15.50;7.55;;;;;;;3.56;50.15;100671.73;1766771;79;21953;-87
2023/12/06 13:14:01;;;;;;;12.78;8.38;;;;;;;3.61;50.10;100676.28;1765250;79;21298;-88
2023/12/06 13:17:04;;;;;;;29.05;11.95;;;;;;;3.60;50.52;100673.21;1760759;79;21299;-87
2023/12/06 13:19:55;;;;;;;16.17;8.48;;;;;;;3.60;50.50;100669.16;1768489;79;21797;-91
2023/12/06 13:22:42;;;;;;;13.10;8.33;;;;;;;3.45;50.94;100678.50;1762831;79;21818;-91
2023/12/06 13:25:38;;;;;;;33.10;12.43;;;;;;;3.42;51.16;100682.29;1774518;79;21310;-90
2023/12/06 13:28:47;;;;;;;16.17;8.48;;;;;;;3.32;51.62;100678.59;1755714;79;21303;-90
2023/12/06 13:31:54;;;;;;;20.82;9.75;;;;;;;3.08;51.98;100678.19;1771026;79;21310;-91
2023/12/06 13:35:00;;;;;;;44.67;14.35;;;;;;;3.29;51.85;100670.25;1762110;79;21282;-89
2023/12/06 13:38:11;;;;;;;20.40;9.03;;;;;;;3.32;52.02;100675.89;1761091;80;21261;-90
2023/12/06 13:41:17;;;;;;;16.27;9.55;;;;;;;3.09;52.50;100674.98;1752516;79;21839;-88
2023/12/06 13:44:24;;;;;;;16.70;8.50;;;;;;;2.98;52.50;100677.18;1756781;79;21283;-88
2023/12/06 13:47:31;;;;;;;18.30;10.20;;;;;;;3.16;52.22;100669.48;1762401;79;21350;-88
2023/12/06 13:50:37;;;;;;;17.92;9.33;;;;;;;3.02;52.41;100667.00;1771232;79;21680;-88
2023/12/06 13:53:44;;;;;;;19.10;10.28;;;;;;;2.92;52.80;100666.00;1773551;79;21609;-88
2023/12/06 13:56:51;;;;;;;23.47;10.32;;;;;;;3.08;52.53;100680.89;1775057;79;21394;-89
2023/12/06 13:59:58;;;;;;;16.23;8.88;;;;;;;3.10;52.66;100671.80;1772659;79;21303;-90
2023/12/06 14:03:04;;;;;;;32.95;12.35;;;;;;;2.97;53.18;100674.11;1760640;79;21353;-87
2023/12/06 14:06:11;;;;;;;66.62;19.73;;;;;;;3.00;53.16;100674.35;1763011;79;21879;-90
2023/12/06 14:09:18;;;;;;;18.62;9.13;;;;;;;2.88;53.44;100666.72;1769251;81;21653;-90
2023/12/06 14:12:25;;;;;;;26.20;9.58;;;;;;;2.83;53.36;100684.27;1735017;81;21363;-88
2023/12/06 14:15:32;;;;;;;29.60;12.55;;;;;;;2.99;53.07;100672.63;1757352;81;21323;-88
2023/12/06 14:18:38;;;;;;;18.85;9.33;;;;;;;2.94;53.29;100668.08;1761613;80;21376;-90
2023/12/06 14:21:46;;;;;;;41.10;14.30;;;;;;;2.85;53.42;100672.34;1767590;81;21288;-90